Time;durP1;ratioP1;P1;durP2;ratioP2;P2;SDS_P1;SDS_P2;PMS_P1;PMS_P2;Temp;Humidity;BMP_temperature;BMP_pressure;BME280_temperature;BME280_humidity;BME280_pressure;Samples;Min_cycle;Max_cycle;Signal;HPM_P1;HPM_P2
2021/07/17 00:01:39;;;;;;;;;;;22.20;59.50;;;;;;500345;237;1215;-70
2021/07/17 00:03:41;;;;;;;;;;;22.10;59.50;;;;;;500410;237;1104;-70
2021/07/17 00:05:42;;;;;;;;;;;22.10;59.50;;;;;;500523;237;962;-70
2021/07/17 00:07:43;;;;;;;;;;;22.10;59.60;;;;;;500389;237;2140;-70
2021/07/17 00:09:46;;;;;;;;;;;22.10;59.60;;;;;;500197;237;1065;-70
2021/07/17 00:11:46;;;;;;;;;;;22.20;59.50;;;;;;500313;236;1375;-70
2021/07/17 00:13:48;;;;;;;;;;;22.10;59.50;;;;;;500428;237;1184;-70
2021/07/17 00:15:50;;;;;;;;;;;22.10;59.60;;;;;;500441;237;1164;-70
2021/07/17 00:17:51;;;;;;;;;;;22.20;59.50;;;;;;500256;237;1403;-70
2021/07/17 00:19:52;;;;;;;;;;;22.10;59.50;;;;;;500428;237;1099;-70
2021/07/17 00:21:53;;;;;;;;;;;22.20;59.60;;;;;;500358;237;1070;-70
2021/07/17 00:23:55;;;;;;;;;;;22.20;59.50;;;;;;500347;237;995;-70
2021/07/17 00:25:57;;;;;;;;;;;22.20;59.50;;;;;;500340;237;1076;-70
2021/07/17 00:27:59;;;;;;;;;;;22.20;59.60;;;;;;500092;237;2188;-70
2021/07/17 00:29:59;;;;;;;;;;;22.20;59.40;;;;;;500365;237;1258;-70
2021/07/17 00:32:01;;;;;;;;;;;22.20;59.40;;;;;;500440;237;1176;-70
2021/07/17 00:34:02;;;;;;;;;;;22.20;59.50;;;;;;500430;237;1078;-70
2021/07/17 00:36:03;;;;;;;;;;;22.10;59.50;;;;;;500122;237;1108;-70
2021/07/17 00:38:05;;;;;;;;;;;22.10;59.50;;;;;;500491;237;1194;-70
2021/07/17 00:40:06;;;;;;;;;;;22.10;59.60;;;;;;500471;237;1046;-70
2021/07/17 00:42:07;;;;;;;;;;;22.10;59.60;;;;;;500367;237;1120;-70
2021/07/17 00:44:09;;;;;;;;;;;22.10;59.50;;;;;;500384;237;1150;-70
2021/07/17 00:46:10;;;;;;;;;;;22.20;59.50;;;;;;500406;237;1194;-70
2021/07/17 00:48:11;;;;;;;;;;;22.20;59.50;;;;;;500361;237;2136;-70
2021/07/17 00:50:13;;;;;;;;;;;22.20;59.50;;;;;;500339;237;1123;-70
2021/07/17 00:52:14;;;;;;;;;;;22.20;59.50;;;;;;500282;237;1226;-70
2021/07/17 00:54:18;;;;;;;;;;;22.10;59.50;;;;;;500357;237;1051;-69
2021/07/17 00:56:16;;;;;;;;;;;22.20;59.50;;;;;;500073;238;1485;-70
2021/07/17 00:58:18;;;;;;;;;;;22.10;59.60;;;;;;500134;237;1067;-70
2021/07/17 01:00:19;;;;;;;;;;;22.20;59.50;;;;;;500279;237;1050;-70
2021/07/17 01:02:20;;;;;;;;;;;22.20;59.50;;;;;;500372;237;1216;-70
2021/07/17 01:04:22;;;;;;;;;;;22.10;59.40;;;;;;500409;237;1049;-70
2021/07/17 01:06:23;;;;;;;;;;;22.10;59.60;;;;;;500319;237;1139;-70
2021/07/17 01:08:25;;;;;;;;;;;22.00;59.70;;;;;;500298;237;2179;-70
2021/07/17 01:10:26;;;;;;;;;;;22.00;59.60;;;;;;500466;237;1263;-70
2021/07/17 01:12:27;;;;;;;;;;;22.10;59.60;;;;;;500282;237;1095;-70
2021/07/17 01:14:30;;;;;;;;;;;22.10;59.70;;;;;;500384;237;1054;-70
2021/07/17 01:16:30;;;;;;;;;;;22.20;59.50;;;;;;499994;234;1655;-70
2021/07/17 01:18:31;;;;;;;;;;;22.10;59.60;;;;;;500438;237;1129;-70
2021/07/17 01:20:32;;;;;;;;;;;22.10;59.60;;;;;;500415;237;1127;-70
2021/07/17 01:22:34;;;;;;;;;;;22.00;59.70;;;;;;500423;237;1089;-70
2021/07/17 01:24:35;;;;;;;;;;;22.00;59.70;;;;;;500128;237;983;-70
2021/07/17 01:26:36;;;;;;;;;;;22.00;59.70;;;;;;500440;237;1222;-70
2021/07/17 01:28:38;;;;;;;;;;;22.00;59.80;;;;;;500374;237;2172;-70
2021/07/17 01:30:39;;;;;;;;;;;22.10;59.80;;;;;;500401;237;1113;-70
2021/07/17 01:32:40;;;;;;;;;;;22.00;59.70;;;;;;500389;237;1159;-70
2021/07/17 01:34:42;;;;;;;;;;;22.00;59.90;;;;;;500366;237;1127;-70
2021/07/17 01:36:43;;;;;;;;;;;22.10;59.60;;;;;;500346;237;1325;-70
2021/07/17 01:38:44;;;;;;;;;;;22.10;59.70;;;;;;500305;237;1221;-70
2021/07/17 01:40:46;;;;;;;;;;;22.10;59.80;;;;;;500378;237;1322;-70
2021/07/17 01:42:47;;;;;;;;;;;22.00;59.80;;;;;;500298;237;1130;-70
2021/07/17 01:44:48;;;;;;;;;;;22.10;59.80;;;;;;500391;237;1020;-70
2021/07/17 01:46:50;;;;;;;;;;;22.10;59.70;;;;;;500395;237;1450;-70
2021/07/17 01:48:52;;;;;;;;;;;22.10;59.80;;;;;;500215;237;2180;-70
2021/07/17 01:50:53;;;;;;;;;;;22.10;59.80;;;;;;500403;237;1259;-70
2021/07/17 01:52:54;;;;;;;;;;;22.10;59.70;;;;;;500383;237;1098;-70
2021/07/17 01:54:56;;;;;;;;;;;22.10;59.80;;;;;;500382;237;1039;-70
2021/07/17 01:56:57;;;;;;;;;;;22.00;59.80;;;;;;500328;237;1242;-70
2021/07/17 01:58:58;;;;;;;;;;;22.00;59.90;;;;;;500426;237;1064;-70
2021/07/17 02:00:59;;;;;;;;;;;22.00;59.80;;;;;;500203;237;954;-70
2021/07/17 02:03:01;;;;;;;;;;;22.00;59.90;;;;;;500311;237;1194;-70
2021/07/17 02:05:02;;;;;;;;;;;22.00;60.00;;;;;;500175;237;1041;-70
2021/07/17 02:07:03;;;;;;;;;;;22.10;59.80;;;;;;500290;237;1294;-70
2021/07/17 02:09:05;;;;;;;;;;;22.10;59.70;;;;;;500427;237;1086;-70
2021/07/17 02:11:06;;;;;;;;;;;22.10;59.80;;;;;;500383;237;1093;-70
2021/07/17 02:13:07;;;;;;;;;;;22.10;59.80;;;;;;500207;237;1132;-70
2021/07/17 02:15:09;;;;;;;;;;;22.10;59.60;;;;;;500352;237;1100;-70
2021/07/17 02:17:10;;;;;;;;;;;22.10;59.70;;;;;;500362;237;1261;-70
2021/07/17 02:19:12;;;;;;;;;;;22.10;59.70;;;;;;500335;237;1094;-70
2021/07/17 02:21:13;;;;;;;;;;;22.00;60.00;;;;;;500354;237;1078;-70
2021/07/17 02:23:14;;;;;;;;;;;22.10;59.70;;;;;;500370;237;1122;-70
2021/07/17 02:25:16;;;;;;;;;;;22.10;59.70;;;;;;500331;237;1010;-70
2021/07/17 02:27:17;;;;;;;;;;;22.00;59.70;;;;;;500346;237;2180;-70
2021/07/17 02:29:18;;;;;;;;;;;22.10;59.80;;;;;;500572;237;1156;-70
2021/07/17 02:31:20;;;;;;;;;;;22.10;59.70;;;;;;500279;237;1047;-70
2021/07/17 02:33:21;;;;;;;;;;;22.10;59.80;;;;;;500377;237;1197;-70
2021/07/17 02:35:22;;;;;;;;;;;22.10;59.80;;;;;;500360;237;1047;-70
2021/07/17 02:37:24;;;;;;;;;;;22.10;59.80;;;;;;499971;237;1180;-70
2021/07/17 02:39:25;;;;;;;;;;;22.10;59.70;;;;;;500484;237;1187;-70
2021/07/17 02:41:26;;;;;;;;;;;22.10;59.80;;;;;;500341;237;1053;-70
2021/07/17 02:43:28;;;;;;;;;;;22.00;59.70;;;;;;500514;237;1288;-70
2021/07/17 02:45:29;;;;;;;;;;;22.00;59.90;;;;;;500371;237;1049;-70
2021/07/17 02:47:30;;;;;;;;;;;22.10;59.80;;;;;;500352;237;2195;-70
2021/07/17 02:49:32;;;;;;;;;;;22.00;59.70;;;;;;500324;237;1125;-70
2021/07/17 02:51:33;;;;;;;;;;;22.00;59.90;;;;;;500345;237;1091;-70
2021/07/17 02:53:35;;;;;;;;;;;22.10;59.80;;;;;;500310;237;1144;-70
2021/07/17 02:55:36;;;;;;;;;;;22.10;59.80;;;;;;500122;237;966;-70
2021/07/17 02:57:37;;;;;;;;;;;22.10;59.50;;;;;;500266;237;1169;-70
2021/07/17 02:59:38;;;;;;;;;;;22.10;59.60;;;;;;500416;237;1083;-70
2021/07/17 03:01:40;;;;;;;;;;;22.10;59.60;;;;;;500339;237;1146;-70
2021/07/17 03:03:41;;;;;;;;;;;22.00;60.00;;;;;;500506;237;1171;-70
2021/07/17 03:05:42;;;;;;;;;;;22.10;59.60;;;;;;500403;237;1197;-70
2021/07/17 03:07:44;;;;;;;;;;;22.10;59.70;;;;;;500229;237;2176;-70
2021/07/17 03:09:45;;;;;;;;;;;22.10;59.70;;;;;;500379;237;1019;-70
2021/07/17 03:11:46;;;;;;;;;;;22.10;59.70;;;;;;500354;237;1283;-70
2021/07/17 03:13:48;;;;;;;;;;;22.00;59.80;;;;;;500412;237;1166;-70
2021/07/17 03:15:50;;;;;;;;;;;22.00;59.70;;;;;;500442;237;1489;-70
2021/07/17 03:17:51;;;;;;;;;;;22.10;59.40;;;;;;500419;237;1112;-70
2021/07/17 03:19:52;;;;;;;;;;;22.10;59.70;;;;;;500362;237;988;-70
2021/07/17 03:21:54;;;;;;;;;;;22.00;59.70;;;;;;500446;237;1279;-70
2021/07/17 03:23:55;;;;;;;;;;;22.00;59.90;;;;;;500448;237;966;-70
2021/07/17 03:25:57;;;;;;;;;;;22.10;59.70;;;;;;500375;237;1218;-70
2021/07/17 03:27:58;;;;;;;;;;;22.00;59.70;;;;;;500310;237;2187;-70
2021/07/17 03:29:59;;;;;;;;;;;22.00;59.60;;;;;;500525;237;1052;-70
2021/07/17 03:32:00;;;;;;;;;;;22.00;59.70;;;;;;500305;237;1166;-70
2021/07/17 03:34:02;;;;;;;;;;;21.90;59.90;;;;;;500506;237;1139;-70
2021/07/17 03:36:03;;;;;;;;;;;22.10;59.70;;;;;;500365;237;1210;-70
2021/07/17 03:38:04;;;;;;;;;;;22.00;59.70;;;;;;500418;237;1288;-70
2021/07/17 03:40:06;;;;;;;;;;;22.10;59.70;;;;;;500481;237;959;-70
2021/07/17 03:42:07;;;;;;;;;;;22.10;59.70;;;;;;500353;237;1069;-70
2021/07/17 03:44:09;;;;;;;;;;;22.00;59.70;;;;;;500387;237;1101;-70
2021/07/17 03:46:10;;;;;;;;;;;22.10;59.60;;;;;;500311;238;1353;-70
2021/07/17 03:48:11;;;;;;;;;;;22.10;59.60;;;;;;500464;237;2152;-70
2021/07/17 03:50:12;;;;;;;;;;;22.10;59.60;;;;;;500414;237;1066;-70
2021/07/17 03:52:14;;;;;;;;;;;22.10;59.70;;;;;;500293;237;1150;-70
2021/07/17 03:54:16;;;;;;;;;;;22.10;59.60;;;;;;500391;237;1275;-70
2021/07/17 03:56:17;;;;;;;;;;;22.10;59.80;;;;;;500360;237;1347;-70
2021/07/17 03:58:18;;;;;;;;;;;22.00;59.70;;;;;;500426;237;1138;-70
2021/07/17 04:00:19;;;;;;;;;;;22.10;59.80;;;;;;500440;237;1027;-70
2021/07/17 04:02:21;;;;;;;;;;;22.00;59.80;;;;;;500362;237;1161;-70
2021/07/17 04:04:22;;;;;;;;;;;22.00;59.70;;;;;;500470;237;1138;-70
2021/07/17 04:06:23;;;;;;;;;;;22.00;59.80;;;;;;500342;236;1366;-70
2021/07/17 04:08:25;;;;;;;;;;;22.00;59.80;;;;;;500303;237;2187;-70
2021/07/17 04:10:26;;;;;;;;;;;22.10;59.70;;;;;;500341;237;1028;-70
2021/07/17 04:12:27;;;;;;;;;;;22.00;59.80;;;;;;500366;237;1133;-70
2021/07/17 04:14:29;;;;;;;;;;;22.00;59.90;;;;;;500380;237;999;-70
2021/07/17 04:16:30;;;;;;;;;;;22.00;60.00;;;;;;500371;237;1191;-70
2021/07/17 04:18:31;;;;;;;;;;;21.90;60.00;;;;;;500429;237;1175;-70
2021/07/17 04:20:33;;;;;;;;;;;22.10;59.80;;;;;;500383;237;1070;-70
2021/07/17 04:22:34;;;;;;;;;;;22.20;59.60;;;;;;500319;237;1187;-70
2021/07/17 04:24:35;;;;;;;;;;;22.20;59.50;;;;;;500450;237;1079;-70
2021/07/17 04:26:37;;;;;;;;;;;22.10;59.40;;;;;;500352;237;1117;-70
2021/07/17 04:28:38;;;;;;;;;;;22.10;59.60;;;;;;500410;237;2132;-70
2021/07/17 04:30:39;;;;;;;;;;;22.00;59.80;;;;;;500385;237;1124;-70
2021/07/17 04:32:41;;;;;;;;;;;22.10;59.60;;;;;;500293;237;1063;-70
2021/07/17 04:34:42;;;;;;;;;;;22.00;59.60;;;;;;500466;237;1184;-70
2021/07/17 04:36:43;;;;;;;;;;;22.00;59.60;;;;;;500354;237;1211;-70
2021/07/17 04:38:45;;;;;;;;;;;22.10;59.80;;;;;;500414;237;1181;-70
2021/07/17 04:40:46;;;;;;;;;;;22.10;59.70;;;;;;500512;237;1237;-70
2021/07/17 04:42:47;;;;;;;;;;;22.00;59.70;;;;;;500249;237;1099;-70
2021/07/17 04:44:49;;;;;;;;;;;22.00;59.60;;;;;;500394;237;950;-70
2021/07/17 04:46:50;;;;;;;;;;;22.10;59.60;;;;;;500331;237;1202;-70
2021/07/17 04:48:51;;;;;;;;;;;22.10;59.70;;;;;;500451;237;2140;-70
2021/07/17 04:50:53;;;;;;;;;;;22.10;59.80;;;;;;500477;237;1220;-70
2021/07/17 04:52:58;;;;;;;;;;;22.00;60.00;;;;;;500321;237;1066;-70
2021/07/17 04:54:58;;;;;;;;;;;22.10;59.80;;;;;;500318;237;1474;-70
2021/07/17 04:57:00;;;;;;;;;;;22.10;59.70;;;;;;500362;237;1249;-70
2021/07/17 04:59:01;;;;;;;;;;;22.10;59.50;;;;;;500354;237;1179;-70
2021/07/17 05:01:02;;;;;;;;;;;22.10;59.60;;;;;;500563;237;1270;-70
2021/07/17 05:03:04;;;;;;;;;;;22.00;59.70;;;;;;500428;237;1085;-70
2021/07/17 05:05:05;;;;;;;;;;;22.00;60.00;;;;;;500438;237;1209;-70
2021/07/17 05:07:06;;;;;;;;;;;22.10;60.00;;;;;;500340;237;1234;-70
2021/07/17 05:09:08;;;;;;;;;;;22.10;59.80;;;;;;500369;237;2191;-70
2021/07/17 05:11:09;;;;;;;;;;;22.10;59.80;;;;;;500375;237;1228;-70
2021/07/17 05:13:10;;;;;;;;;;;22.00;59.80;;;;;;500399;237;1085;-70
2021/07/17 05:15:12;;;;;;;;;;;22.00;59.80;;;;;;500443;237;951;-70
2021/07/17 05:17:13;;;;;;;;;;;22.00;60.00;;;;;;500277;237;1188;-70
2021/07/17 05:19:17;;;;;;;;;;;22.00;60.00;;;;;;500404;237;1115;-70
2021/07/17 05:21:16;;;;;;;;;;;22.10;59.50;;;;;;500135;238;1385;-70
2021/07/17 05:23:18;;;;;;;;;;;22.10;59.70;;;;;;500408;237;1143;-70
2021/07/17 05:25:19;;;;;;;;;;;22.10;59.70;;;;;;500562;237;1015;-70
2021/07/17 05:27:20;;;;;;;;;;;22.10;59.70;;;;;;500297;237;1180;-70
2021/07/17 05:29:21;;;;;;;;;;;22.10;60.00;;;;;;500441;237;2140;-70
2021/07/17 05:31:23;;;;;;;;;;;22.00;60.20;;;;;;500388;237;1299;-70
2021/07/17 05:33:24;;;;;;;;;;;22.00;60.00;;;;;;500348;237;1057;-70
2021/07/17 05:35:28;;;;;;;;;;;22.10;60.00;;;;;;500454;237;1180;-70
2021/07/17 05:37:27;;;;;;;;;;;22.10;60.00;;;;;;500109;238;1489;-70
2021/07/17 05:39:28;;;;;;;;;;;22.10;60.00;;;;;;500480;237;1049;-70
2021/07/17 05:41:30;;;;;;;;;;;22.10;60.00;;;;;;500382;237;1147;-69
2021/07/17 05:43:31;;;;;;;;;;;22.10;60.20;;;;;;500376;237;1021;-70
2021/07/17 05:45:32;;;;;;;;;;;22.10;60.10;;;;;;500362;237;1324;-70
2021/07/17 05:47:34;;;;;;;;;;;22.10;60.00;;;;;;500400;237;1069;-70
2021/07/17 05:49:35;;;;;;;;;;;22.10;60.00;;;;;;500405;237;2180;-70
2021/07/17 05:51:36;;;;;;;;;;;22.00;60.10;;;;;;500307;237;1224;-70
2021/07/17 05:53:38;;;;;;;;;;;22.10;60.00;;;;;;500359;237;1005;-70
2021/07/17 05:55:39;;;;;;;;;;;22.10;60.10;;;;;;500339;237;1344;-70
2021/07/17 05:57:40;;;;;;;;;;;22.10;60.10;;;;;;500314;237;1053;-70
2021/07/17 05:59:42;;;;;;;;;;;22.10;59.90;;;;;;500329;237;961;-70
2021/07/17 06:01:43;;;;;;;;;;;22.10;59.80;;;;;;500253;237;1171;-70
2021/07/17 06:03:46;;;;;;;;;;;22.10;59.80;;;;;;500194;237;1249;-70
2021/07/17 06:05:46;;;;;;;;;;;22.10;60.00;;;;;;500147;238;1508;-70
2021/07/17 06:07:47;;;;;;;;;;;22.00;60.10;;;;;;500266;237;1102;-70
2021/07/17 06:09:48;;;;;;;;;;;21.90;60.50;;;;;;500213;237;2172;-70
2021/07/17 06:11:50;;;;;;;;;;;22.00;60.40;;;;;;500194;237;1322;-70
2021/07/17 06:13:51;;;;;;;;;;;22.00;60.20;;;;;;500253;237;1086;-70
2021/07/17 06:15:53;;;;;;;;;;;22.00;60.00;;;;;;500234;237;1218;-70
2021/07/17 06:17:54;;;;;;;;;;;22.10;60.00;;;;;;500295;237;1043;-70
2021/07/17 06:19:55;;;;;;;;;;;22.10;60.10;;;;;;500332;237;1253;-70
2021/07/17 06:21:57;;;;;;;;;;;22.00;60.20;;;;;;500298;237;1029;-70
2021/07/17 06:23:58;;;;;;;;;;;22.00;60.30;;;;;;500366;237;927;-70
2021/07/17 06:26:00;;;;;;;;;;;22.00;60.20;;;;;;500306;237;1090;-70
2021/07/17 06:28:01;;;;;;;;;;;22.00;60.20;;;;;;500255;237;1396;-70
2021/07/17 06:30:02;;;;;;;;;;;22.10;60.10;;;;;;500422;237;2180;-70
2021/07/17 06:32:03;;;;;;;;;;;22.10;60.00;;;;;;500237;237;1115;-70
2021/07/17 06:34:05;;;;;;;;;;;22.00;60.10;;;;;;500316;237;1018;-70
2021/07/17 06:36:08;;;;;;;;;;;22.00;60.30;;;;;;500245;237;1175;-70
2021/07/17 06:38:07;;;;;;;;;;;22.00;60.30;;;;;;500072;238;1428;-70
2021/07/17 06:40:09;;;;;;;;;;;21.90;60.30;;;;;;500282;237;1086;-70
2021/07/17 06:42:11;;;;;;;;;;;22.00;60.10;;;;;;500219;237;1184;-70
2021/07/17 06:44:12;;;;;;;;;;;22.10;60.20;;;;;;500307;237;972;-70
2021/07/17 06:46:13;;;;;;;;;;;22.10;60.20;;;;;;500178;235;1203;-70
2021/07/17 06:48:15;;;;;;;;;;;22.00;60.30;;;;;;500251;237;1085;-70
2021/07/17 06:50:16;;;;;;;;;;;22.10;60.20;;;;;;500266;237;2188;-70
2021/07/17 06:52:17;;;;;;;;;;;22.10;60.00;;;;;;500283;237;1122;-70
2021/07/17 06:54:19;;;;;;;;;;;22.10;59.90;;;;;;500303;237;1032;-70
2021/07/17 06:56:21;;;;;;;;;;;22.10;60.00;;;;;;500245;237;1278;-70
2021/07/17 06:58:21;;;;;;;;;;;22.20;60.00;;;;;;500217;237;1516;-70
2021/07/17 07:00:23;;;;;;;;;;;22.10;60.00;;;;;;500331;237;1058;-70
2021/07/17 07:02:24;;;;;;;;;;;22.00;60.30;;;;;;500334;237;1200;-70
2021/07/17 07:04:26;;;;;;;;;;;22.10;60.30;;;;;;500314;237;969;-70
2021/07/17 07:06:27;;;;;;;;;;;22.10;60.30;;;;;;500276;237;1369;-70
2021/07/17 07:08:28;;;;;;;;;;;22.10;60.20;;;;;;500356;237;1047;-70
2021/07/17 07:10:29;;;;;;;;;;;22.10;60.10;;;;;;500297;237;2125;-70
2021/07/17 07:12:31;;;;;;;;;;;22.00;60.20;;;;;;500246;237;1135;-70
2021/07/17 07:14:32;;;;;;;;;;;22.10;60.30;;;;;;500323;237;1044;-70
2021/07/17 07:16:33;;;;;;;;;;;22.10;60.30;;;;;;500186;235;1115;-70
2021/07/17 07:18:35;;;;;;;;;;;22.00;60.50;;;;;;500307;237;1058;-70
2021/07/17 07:20:36;;;;;;;;;;;22.10;60.30;;;;;;500321;237;1139;-70
2021/07/17 07:22:37;;;;;;;;;;;22.10;60.10;;;;;;500143;237;1133;-70
2021/07/17 07:24:39;;;;;;;;;;;22.10;60.10;;;;;;500349;237;1166;-70
2021/07/17 07:26:40;;;;;;;;;;;22.10;60.00;;;;;;500343;237;1329;-70
2021/07/17 07:28:41;;;;;;;;;;;22.00;60.30;;;;;;500372;237;1087;-70
2021/07/17 07:30:43;;;;;;;;;;;22.00;60.30;;;;;;500312;237;2121;-70
2021/07/17 07:32:44;;;;;;;;;;;22.00;60.50;;;;;;500300;237;1107;-70
2021/07/17 07:34:45;;;;;;;;;;;22.00;60.60;;;;;;500269;237;973;-70
2021/07/17 07:36:47;;;;;;;;;;;22.00;60.70;;;;;;500169;237;1311;-70
2021/07/17 07:38:48;;;;;;;;;;;22.10;60.30;;;;;;500223;237;1016;-70
2021/07/17 07:40:49;;;;;;;;;;;22.00;60.30;;;;;;500214;237;1234;-70
2021/07/17 07:42:50;;;;;;;;;;;22.10;60.30;;;;;;500354;237;1107;-70
2021/07/17 07:44:52;;;;;;;;;;;22.00;60.40;;;;;;500407;237;1037;-70
2021/07/17 07:46:53;;;;;;;;;;;22.00;60.40;;;;;;500272;237;1196;-70
2021/07/17 07:48:55;;;;;;;;;;;22.00;60.40;;;;;;500330;237;1035;-70
2021/07/17 07:50:58;;;;;;;;;;;22.00;60.60;;;;;;500270;237;2136;-70
2021/07/17 07:52:59;;;;;;;;;;;22.00;60.60;;;;;;500156;238;1332;-70
2021/07/17 07:54:59;;;;;;;;;;;22.10;60.30;;;;;;500254;238;1562;-70
2021/07/17 07:57:00;;;;;;;;;;;22.10;60.30;;;;;;500210;237;1111;-70
2021/07/17 07:59:01;;;;;;;;;;;22.10;60.30;;;;;;500227;237;994;-70
2021/07/17 08:01:03;;;;;;;;;;;22.00;60.40;;;;;;500291;237;1222;-70
2021/07/17 08:03:04;;;;;;;;;;;22.10;60.30;;;;;;500278;237;1142;-70
2021/07/17 08:05:05;;;;;;;;;;;22.00;60.40;;;;;;500253;237;1113;-70
2021/07/17 08:07:08;;;;;;;;;;;22.00;60.70;;;;;;500262;237;1170;-70
2021/07/17 08:09:08;;;;;;;;;;;22.10;60.50;;;;;;500228;237;1497;-70
2021/07/17 08:11:10;;;;;;;;;;;22.10;60.20;;;;;;500248;237;2187;-70
2021/07/17 08:13:11;;;;;;;;;;;22.10;60.10;;;;;;500279;237;1066;-70
2021/07/17 08:15:14;;;;;;;;;;;22.10;60.20;;;;;;500232;237;1045;-70
2021/07/17 08:17:14;;;;;;;;;;;22.10;60.30;;;;;;500157;237;1327;-70
2021/07/17 08:19:16;;;;;;;;;;;22.00;60.30;;;;;;500175;237;1159;-70
2021/07/17 08:21:17;;;;;;;;;;;22.10;60.30;;;;;;500119;237;1281;-70
2021/07/17 08:23:18;;;;;;;;;;;21.90;60.60;;;;;;500272;237;1188;-70
2021/07/17 08:25:20;;;;;;;;;;;21.90;60.70;;;;;;500181;237;1031;-70
2021/07/17 08:27:21;;;;;;;;;;;22.00;60.60;;;;;;500176;237;1560;-70
2021/07/17 08:29:22;;;;;;;;;;;22.00;60.50;;;;;;500319;237;2132;-70
2021/07/17 08:31:24;;;;;;;;;;;22.00;60.40;;;;;;500227;235;1352;-70
2021/07/17 08:33:25;;;;;;;;;;;22.00;60.40;;;;;;500341;237;1060;-70
2021/07/17 08:35:26;;;;;;;;;;;22.00;60.50;;;;;;500315;237;1052;-70
2021/07/17 08:37:27;;;;;;;;;;;22.00;60.60;;;;;;500200;237;1160;-70
2021/07/17 08:39:29;;;;;;;;;;;21.90;60.70;;;;;;500294;237;1039;-70
2021/07/17 08:41:30;;;;;;;;;;;22.00;60.60;;;;;;500263;237;1232;-70
2021/07/17 08:43:32;;;;;;;;;;;22.00;60.60;;;;;;500353;237;974;-70
2021/07/17 08:45:33;;;;;;;;;;;22.00;60.40;;;;;;500302;237;943;-70
2021/07/17 08:47:38;;;;;;;;;;;22.10;60.60;;;;;;500283;237;1082;-70
2021/07/17 08:49:37;;;;;;;;;;;22.10;60.50;;;;;;500146;238;2180;-70
2021/07/17 08:51:39;;;;;;;;;;;22.10;60.30;;;;;;500314;234;1299;-70
2021/07/17 08:53:40;;;;;;;;;;;22.10;60.40;;;;;;500338;237;1201;-70
2021/07/17 08:55:41;;;;;;;;;;;22.10;60.60;;;;;;500175;237;1120;-70
2021/07/17 08:57:43;;;;;;;;;;;22.10;60.60;;;;;;500304;237;1097;-70
2021/07/17 08:59:44;;;;;;;;;;;22.10;60.40;;;;;;500232;237;1105;-70
2021/07/17 09:01:46;;;;;;;;;;;22.10;60.50;;;;;;500253;235;1369;-70
2021/07/17 09:03:47;;;;;;;;;;;22.10;60.60;;;;;;500269;237;1188;-70
2021/07/17 09:05:49;;;;;;;;;;;22.10;60.40;;;;;;500294;237;1209;-70
2021/07/17 09:07:50;;;;;;;;;;;22.20;60.30;;;;;;500318;237;1167;-70
2021/07/17 09:09:52;;;;;;;;;;;22.20;60.30;;;;;;500309;237;2184;-70
2021/07/17 09:11:53;;;;;;;;;;;22.10;60.50;;;;;;500269;237;1238;-70
2021/07/17 09:13:54;;;;;;;;;;;22.10;60.70;;;;;;500252;237;1202;-70
2021/07/17 09:15:56;;;;;;;;;;;22.00;60.70;;;;;;500263;237;1190;-70
2021/07/17 09:17:57;;;;;;;;;;;22.10;60.40;;;;;;500354;237;1068;-70
2021/07/17 09:19:58;;;;;;;;;;;22.10;60.30;;;;;;500238;237;955;-70
2021/07/17 09:22:00;;;;;;;;;;;22.10;60.40;;;;;;500320;237;1196;-70
2021/07/17 09:24:01;;;;;;;;;;;22.10;60.20;;;;;;500307;237;1123;-70
2021/07/17 09:26:02;;;;;;;;;;;22.00;60.60;;;;;;500204;237;1128;-70
2021/07/17 09:28:04;;;;;;;;;;;22.00;60.80;;;;;;500283;237;1058;-70
2021/07/17 09:30:05;;;;;;;;;;;21.90;61.00;;;;;;500272;237;2143;-70
2021/07/17 09:32:06;;;;;;;;;;;21.90;61.10;;;;;;500236;237;987;-70
2021/07/17 09:34:08;;;;;;;;;;;22.00;61.00;;;;;;500404;237;1245;-70
2021/07/17 09:36:09;;;;;;;;;;;22.10;60.60;;;;;;500317;237;1075;-70
2021/07/17 09:38:10;;;;;;;;;;;22.10;60.50;;;;;;500249;237;1258;-70
2021/07/17 09:40:12;;;;;;;;;;;22.10;60.40;;;;;;500376;237;961;-70
2021/07/17 09:42:13;;;;;;;;;;;22.10;60.60;;;;;;500220;237;1234;-70
2021/07/17 09:44:14;;;;;;;;;;;22.10;60.50;;;;;;500326;237;1055;-70
2021/07/17 09:46:16;;;;;;;;;;;22.10;60.70;;;;;;500245;237;1122;-70
2021/07/17 09:48:17;;;;;;;;;;;22.00;60.80;;;;;;500289;237;1286;-70
2021/07/17 09:50:19;;;;;;;;;;;22.00;61.00;;;;;;500255;237;2191;-70
2021/07/17 09:52:21;;;;;;;;;;;22.00;61.00;;;;;;500206;238;1565;-70
2021/07/17 09:54:22;;;;;;;;;;;22.10;60.80;;;;;;500339;237;970;-70
2021/07/17 09:56:23;;;;;;;;;;;22.10;60.60;;;;;;500099;237;1138;-70
2021/07/17 09:58:24;;;;;;;;;;;22.20;60.40;;;;;;500271;237;1160;-70
2021/07/17 10:00:25;;;;;;;;;;;22.10;60.50;;;;;;500277;237;1052;-70
2021/07/17 10:02:27;;;;;;;;;;;22.10;60.60;;;;;;500119;237;1241;-70
2021/07/17 10:04:28;;;;;;;;;;;22.10;60.80;;;;;;500324;237;1150;-70
2021/07/17 10:06:30;;;;;;;;;;;22.10;60.70;;;;;;500220;237;1183;-70
2021/07/17 10:08:31;;;;;;;;;;;22.10;61.00;;;;;;500158;237;1312;-70
2021/07/17 10:10:32;;;;;;;;;;;22.10;60.80;;;;;;500332;237;2174;-70
2021/07/17 10:12:34;;;;;;;;;;;22.10;60.80;;;;;;500285;237;1175;-70
2021/07/17 10:14:35;;;;;;;;;;;22.20;60.50;;;;;;500323;237;961;-70
2021/07/17 10:16:37;;;;;;;;;;;22.20;60.50;;;;;;500362;237;1190;-70
2021/07/17 10:18:38;;;;;;;;;;;22.20;60.60;;;;;;500358;237;1003;-70
2021/07/17 10:20:39;;;;;;;;;;;22.10;60.80;;;;;;500314;237;1252;-70
2021/07/17 10:22:40;;;;;;;;;;;22.10;60.90;;;;;;500223;237;1254;-70
2021/07/17 10:24:42;;;;;;;;;;;22.20;60.70;;;;;;500245;237;1122;-70
2021/07/17 10:26:43;;;;;;;;;;;22.10;60.60;;;;;;500201;237;1123;-70
2021/07/17 10:28:44;;;;;;;;;;;22.30;60.60;;;;;;500352;237;1032;-70
2021/07/17 10:30:46;;;;;;;;;;;22.20;60.60;;;;;;500241;237;2144;-70
2021/07/17 10:32:47;;;;;;;;;;;22.30;60.30;;;;;;500203;237;1341;-70
2021/07/17 10:34:50;;;;;;;;;;;22.30;60.30;;;;;;500274;237;1201;-70
2021/07/17 10:36:50;;;;;;;;;;;22.30;60.30;;;;;;500126;238;1386;-70
2021/07/17 10:38:52;;;;;;;;;;;22.20;60.40;;;;;;500218;237;1151;-70
2021/07/17 10:40:53;;;;;;;;;;;22.20;60.50;;;;;;500297;237;1143;-70
2021/07/17 10:42:54;;;;;;;;;;;22.20;60.50;;;;;;500455;237;1206;-70
2021/07/17 10:44:55;;;;;;;;;;;22.10;60.80;;;;;;500365;237;932;-70
2021/07/17 10:46:57;;;;;;;;;;;22.10;60.70;;;;;;500284;237;1231;-70
2021/07/17 10:48:58;;;;;;;;;;;22.10;60.80;;;;;;500261;237;1201;-70
2021/07/17 10:51:00;;;;;;;;;;;22.20;60.40;;;;;;500131;237;2180;-70
2021/07/17 10:53:01;;;;;;;;;;;22.20;60.50;;;;;;500372;237;1128;-70
2021/07/17 10:55:02;;;;;;;;;;;22.20;60.50;;;;;;500312;237;954;-70
2021/07/17 10:57:04;;;;;;;;;;;22.20;60.50;;;;;;500260;237;1037;-70
2021/07/17 10:59:10;;;;;;;;;;;22.20;60.60;;;;;;500235;237;1136;-70
2021/07/17 11:01:09;;;;;;;;;;;22.10;60.50;;;;;;500082;238;1457;-70
2021/07/17 11:03:11;;;;;;;;;;;22.20;60.60;;;;;;500352;237;1070;-70
2021/07/17 11:05:12;;;;;;;;;;;22.10;60.80;;;;;;500200;237;1182;-70
2021/07/17 11:07:13;;;;;;;;;;;22.10;60.80;;;;;;500177;237;1223;-70
2021/07/17 11:09:15;;;;;;;;;;;22.20;60.50;;;;;;500303;237;1189;-70
2021/07/17 11:11:16;;;;;;;;;;;22.20;60.50;;;;;;500291;237;2168;-70
2021/07/17 11:13:17;;;;;;;;;;;22.20;60.50;;;;;;500248;237;1073;-70
2021/07/17 11:15:19;;;;;;;;;;;22.10;60.70;;;;;;500267;237;1092;-70
2021/07/17 11:17:20;;;;;;;;;;;22.20;60.60;;;;;;500157;237;1254;-70
2021/07/17 11:19:21;;;;;;;;;;;22.20;60.70;;;;;;500293;237;1031;-70
2021/07/17 11:21:23;;;;;;;;;;;22.20;60.60;;;;;;500260;237;1176;-70
2021/07/17 11:23:24;;;;;;;;;;;22.20;60.60;;;;;;500296;237;1137;-70
2021/07/17 11:25:26;;;;;;;;;;;22.20;60.70;;;;;;500339;237;1103;-70
2021/07/17 11:27:27;;;;;;;;;;;22.20;60.60;;;;;;500161;237;1118;-70
2021/07/17 11:29:28;;;;;;;;;;;22.30;60.30;;;;;;500321;237;1041;-70
2021/07/17 11:31:31;;;;;;;;;;;22.30;60.20;;;;;;500310;237;2183;-70
2021/07/17 11:33:31;;;;;;;;;;;22.30;60.30;;;;;;500285;238;1267;-70
2021/07/17 11:35:32;;;;;;;;;;;22.10;60.80;;;;;;500361;237;1169;-70
2021/07/17 11:37:34;;;;;;;;;;;22.10;61.00;;;;;;500246;237;1056;-70
2021/07/17 11:39:35;;;;;;;;;;;22.10;61.00;;;;;;500244;237;1174;-70
2021/07/17 11:41:36;;;;;;;;;;;22.10;60.90;;;;;;500204;237;1102;-70
2021/07/17 11:43:38;;;;;;;;;;;22.10;60.90;;;;;;500273;237;967;-70
2021/07/17 11:45:39;;;;;;;;;;;22.10;60.90;;;;;;500217;237;1223;-70
2021/07/17 11:47:41;;;;;;;;;;;22.10;61.10;;;;;;500189;237;1132;-70
2021/07/17 11:49:42;;;;;;;;;;;22.10;61.10;;;;;;500277;237;1186;-70
2021/07/17 11:51:43;;;;;;;;;;;22.20;60.60;;;;;;500088;237;2183;-70
2021/07/17 11:53:44;;;;;;;;;;;22.20;60.60;;;;;;500235;237;1125;-70
2021/07/17 11:55:45;;;;;;;;;;;22.20;60.70;;;;;;500329;237;1258;-70
2021/07/17 11:57:48;;;;;;;;;;;22.20;60.70;;;;;;500175;237;1052;-70